Time;durP1;ratioP1;P1;durP2;ratioP2;P2;SDS_P1;SDS_P2;PMS_P1;PMS_P2;Temp;Humidity;BMP_temperature;BMP_pressure;BME280_temperature;BME280_humidity;BME280_pressure;Samples;Min_cycle;Max_cycle;Signal;HPM_P1;HPM_P2
2021/01/07 00:02:14;;;;;;;13.87;9.17;;;4.10;9.20;;;;;;5136143;27;20223;-57
2021/01/07 00:04:39;;;;;;;13.70;9.27;;;4.20;8.90;;;;;;5136081;27;20177;-57
2021/01/07 00:07:05;;;;;;;15.23;9.10;;;4.20;5.60;;;;;;5136099;27;20177;-58
2021/01/07 00:09:31;;;;;;;13.20;8.03;;;4.10;9.00;;;;;;5134754;27;20216;-58
2021/01/07 00:11:56;;;;;;;14.20;8.97;;;4.10;10.30;;;;;;5136006;27;20191;-58
2021/01/07 00:14:23;;;;;;;12.97;8.40;;;4.10;10.10;;;;;;5123182;27;20184;-57
2021/01/07 00:16:49;;;;;;;12.23;8.03;;;4.10;7.40;;;;;;5115337;28;20534;-57
2021/01/07 00:19:15;;;;;;;12.43;8.63;;;4.10;6.40;;;;;;5114995;28;20431;-57
2021/01/07 00:21:41;;;;;;;11.80;7.50;;;4.10;6.90;;;;;;5115081;28;20443;-58
2021/01/07 00:24:08;;;;;;;13.50;8.17;;;4.00;9.80;;;;;;5115659;27;20459;-56
2021/01/07 00:26:34;;;;;;;11.50;7.90;;;4.10;7.30;;;;;;5114725;28;20580;-57
2021/01/07 00:29:00;;;;;;;12.07;7.90;;;4.10;6.20;;;;;;5114796;28;20511;-57
2021/01/07 00:31:27;;;;;;;12.53;7.67;;;;;;;;;;5114548;27;20590;-57
2021/01/07 00:33:52;;;;;;;16.10;8.10;;;4.10;9.40;;;;;;5113578;28;20431;-56
2021/01/07 00:36:19;;;;;;;11.60;7.77;;;4.10;9.00;;;;;;5114675;28;20439;-58
2021/01/07 00:38:45;;;;;;;14.27;9.10;;;4.10;10.10;;;;;;5133541;27;20189;-56
2021/01/07 00:41:16;;;;;;;11.10;7.20;;;4.10;9.10;;;;;;5117289;27;20479;-58
2021/01/07 00:43:41;;;;;;;14.47;8.30;;;4.00;8.90;;;;;;5114641;28;20429;-58
2021/01/07 00:46:09;;;;;;;11.60;7.67;;;4.00;11.70;;;;;;5114748;28;20430;-56
2021/01/07 00:48:34;;;;;;;10.93;8.10;;;4.00;10.20;;;;;;5114648;28;20202;-57
2021/01/07 00:51:00;;;;;;;13.27;9.40;;;4.00;10.70;;;;;;5114621;28;20938;-58
2021/01/07 00:53:26;;;;;;;11.50;7.83;;;4.00;10.80;;;;;;5114462;28;20191;-58
2021/01/07 00:55:51;;;;;;;12.53;8.33;;;4.00;13.50;;;;;;5114514;28;20181;-58
2021/01/07 00:58:17;;;;;;;11.70;7.40;;;4.00;12.70;;;;;;5114488;28;20264;-57
2021/01/07 01:00:42;;;;;;;12.63;9.20;;;4.00;15.30;;;;;;5124315;27;20610;-60
2021/01/07 01:03:08;;;;;;;14.27;8.80;;;4.00;16.30;;;;;;5134721;27;20173;-58
2021/01/07 01:05:34;;;;;;;16.33;9.20;;;4.20;13.60;;;;;;5134469;27;20200;-59
2021/01/07 01:07:59;;;;;;;13.63;9.70;;;4.20;12.30;;;;;;5134904;27;20211;-57
2021/01/07 01:10:25;;;;;;;12.77;9.07;;;4.20;11.70;;;;;;5134781;27;20648;-57
2021/01/07 01:12:51;;;;;;;16.43;9.53;;;4.20;11.80;;;;;;5134614;27;20186;-58
2021/01/07 01:15:17;;;;;;;11.83;8.03;;;4.20;10.60;;;;;;5114347;27;20425;-58
2021/01/07 01:17:42;;;;;;;14.97;10.03;;;4.20;10.80;;;;;;5111716;27;20547;-58
2021/01/07 01:20:12;;;;;;;15.60;9.97;;;4.20;9.70;;;;;;5113082;27;20463;-58
2021/01/07 01:22:39;;;;;;;14.30;10.50;;;4.10;9.00;;;;;;5132147;27;20185;-58
2021/01/07 01:25:10;;;;;;;14.47;10.20;;;4.10;11.80;;;;;;5121419;27;20504;-58
2021/01/07 01:27:42;;;;;;;16.43;9.70;;;4.30;4.80;;;;;;5110962;27;20500;-58
2021/01/07 01:30:09;;;;;;;14.47;10.30;;;4.40;4.90;;;;;;5114377;27;20477;-58
2021/01/07 01:32:36;;;;;;;13.63;8.90;;;4.20;6.70;;;;;;5123615;27;20449;-58
2021/01/07 01:35:07;;;;;;;11.77;8.10;;;4.20;7.60;;;;;;5110271;28;20450;-58
2021/01/07 01:37:39;;;;;;;11.97;8.53;;;4.10;12.20;;;;;;5110231;28;20440;-58
2021/01/07 01:40:07;;;;;;;13.47;9.03;;;4.20;10.90;;;;;;5111119;27;20477;-59
2021/01/07 01:42:33;;;;;;;13.20;8.87;;;4.10;12.40;;;;;;5114786;27;20439;-58
2021/01/07 01:44:59;;;;;;;13.00;9.53;;;4.20;11.80;;;;;;5117117;27;20428;-58
2021/01/07 01:47:24;;;;;;;15.30;10.40;;;4.20;11.70;;;;;;5118649;27;20434;-59
2021/01/07 01:49:51;;;;;;;15.50;9.93;;;4.20;13.60;;;;;;5110940;28;20185;-57
2021/01/07 01:52:21;;;;;;;11.90;8.70;;;4.20;11.60;;;;;;5111554;28;20217;-58
2021/01/07 01:54:47;;;;;;;13.30;9.40;;;4.30;11.70;;;;;;5110944;28;20934;-58
2021/01/07 01:57:14;;;;;;;16.90;10.57;;;4.40;9.50;;;;;;5119618;27;20545;-58
2021/01/07 01:59:40;;;;;;;14.57;9.00;;;4.40;9.10;;;;;;5112870;27;20238;-58
2021/01/07 02:02:08;;;;;;;12.47;8.67;;;4.50;4.40;;;;;;5111701;28;20872;-59
2021/01/07 02:04:34;;;;;;;11.50;8.50;;;4.50;1.00;;;;;;5110759;28;20457;-58
2021/01/07 02:07:03;;;;;;;13.70;9.90;;;4.60;1.00;;;;;;5110718;28;20436;-58
2021/01/07 02:09:29;;;;;;;11.90;8.13;;;4.50;1.00;;;;;;5110863;28;20857;-58
2021/01/07 02:11:57;;;;;;;12.70;9.10;;;4.40;1.00;;;;;;5106466;28;20445;-57
2021/01/07 02:14:23;;;;;;;11.70;8.50;;;4.40;2.60;;;;;;5106283;28;20450;-58
2021/01/07 02:16:49;;;;;;;13.57;9.07;;;4.50;1.00;;;;;;5103932;28;20808;-57
2021/01/07 02:19:14;;;;;;;15.20;8.63;;;4.50;1.00;;;;;;5110338;28;20440;-57
2021/01/07 02:21:40;;;;;;;16.60;10.27;;;4.40;1.00;;;;;;5115382;28;20631;-57
2021/01/07 02:24:07;;;;;;;12.27;8.13;;;4.40;1.00;;;;;;5110973;28;20181;-58
2021/01/07 02:26:33;;;;;;;14.03;8.93;;;4.20;1.00;;;;;;5111179;28;20177;-58
2021/01/07 02:28:59;;;;;;;13.20;8.97;;;4.20;1.00;;;;;;5127990;28;20950;-58
2021/01/07 02:31:24;;;;;;;12.37;8.60;;;4.20;1.20;;;;;;5109192;28;20242;-57
2021/01/07 02:33:50;;;;;;;12.60;8.73;;;4.30;1.90;;;;;;5128108;27;20652;-58
2021/01/07 02:36:15;;;;;;;13.60;8.90;;;4.30;1.30;;;;;;5131355;28;20239;-57
2021/01/07 02:38:41;;;;;;;11.53;8.60;;;4.40;1.00;;;;;;5108689;28;20191;-58
2021/01/07 02:41:07;;;;;;;13.30;8.97;;;4.20;1.00;;;;;;5109216;28;20212;-59
2021/01/07 02:43:33;;;;;;;11.73;8.07;;;4.20;1.80;;;;;;5113857;28;20187;-58
2021/01/07 02:45:59;;;;;;;11.00;8.53;;;4.30;1.00;;;;;;5123243;28;20434;-58
2021/01/07 02:48:24;;;;;;;15.33;10.50;;;4.30;1.00;;;;;;5122148;28;20184;-58
2021/01/07 02:50:50;;;;;;;13.37;8.73;;;4.40;1.00;;;;;;5108351;28;20191;-58
2021/01/07 02:53:16;;;;;;;13.13;9.30;;;4.30;1.40;;;;;;5122061;28;20666;-57
2021/01/07 02:55:41;;;;;;;14.70;9.57;;;4.40;1.00;;;;;;5129946;28;20648;-57
2021/01/07 02:58:07;;;;;;;11.97;9.03;;;4.40;1.00;;;;;;5129643;28;20177;-58
2021/01/07 03:00:33;;;;;;;13.57;9.17;;;4.50;1.00;;;;;;5118152;28;20237;-58
2021/01/07 03:02:58;;;;;;;13.73;9.03;;;4.40;1.00;;;;;;5109884;28;20186;-57
2021/01/07 03:05:24;;;;;;;16.87;10.40;;;4.50;1.00;;;;;;5109973;28;20182;-57
2021/01/07 03:07:50;;;;;;;13.33;9.53;;;4.40;1.00;;;;;;5108689;28;20175;-57
2021/01/07 03:10:16;;;;;;;15.33;10.20;;;4.50;1.00;;;;;;5109466;28;20188;-58
2021/01/07 03:12:41;;;;;;;16.90;10.53;;;4.50;1.00;;;;;;5110238;28;20178;-58
2021/01/07 03:15:07;;;;;;;14.10;10.37;;;4.50;1.00;;;;;;5111956;28;20442;-57
2021/01/07 03:17:33;;;;;;;14.60;9.40;;;;;;;;;;5108955;28;21599;-58
2021/01/07 03:20:00;;;;;;;14.20;9.23;;;4.30;1.00;;;;;;5112045;28;20532;-58
2021/01/07 03:22:26;;;;;;;16.07;9.53;;;4.40;1.00;;;;;;5124613;28;20449;-57
2021/01/07 03:24:51;;;;;;;15.20;10.80;;;4.40;1.00;;;;;;5109084;28;20438;-57
2021/01/07 03:27:17;;;;;;;13.27;10.03;;;4.30;1.00;;;;;;5106438;28;20442;-59
2021/01/07 03:29:43;;;;;;;14.93;10.70;;;4.30;1.00;;;;;;5112909;28;20241;-58
2021/01/07 03:32:08;;;;;;;13.17;8.87;;;4.20;1.00;;;;;;5112131;28;20197;-58
2021/01/07 03:34:34;;;;;;;13.53;9.83;;;4.20;1.00;;;;;;5110473;28;20181;-58
2021/01/07 03:37:00;;;;;;;14.90;9.83;;;4.40;1.00;;;;;;5110715;28;20650;-57
2021/01/07 03:39:26;;;;;;;13.70;10.30;;;4.40;1.00;;;;;;5109734;28;20273;-57
2021/01/07 03:41:51;;;;;;;15.20;9.90;;;4.40;1.00;;;;;;5112164;27;20492;-57
2021/01/07 03:44:17;;;;;;;15.70;9.80;;;5.20;1.00;;;;;;5113037;27;20180;-58
2021/01/07 03:46:42;;;;;;;14.13;9.80;;;4.20;1.00;;;;;;5111594;28;20223;-58
2021/01/07 03:49:08;;;;;;;13.10;9.90;;;4.20;1.00;;;;;;5112302;27;20181;-58
2021/01/07 03:51:34;;;;;;;14.17;9.70;;;4.20;1.00;;;;;;5113603;27;20246;-57
2021/01/07 03:53:59;;;;;;;15.20;10.13;;;4.10;1.00;;;;;;5110813;27;20725;-59
2021/01/07 03:56:25;;;;;;;13.03;9.33;;;4.20;1.00;;;;;;5110326;28;20558;-57
2021/01/07 03:58:51;;;;;;;14.70;9.80;;;4.20;1.00;;;;;;5111824;28;20206;-58
2021/01/07 04:01:17;;;;;;;13.20;9.13;;;4.20;1.00;;;;;;5109731;28;20773;-57
2021/01/07 04:03:43;;;;;;;12.70;8.73;;;4.10;1.00;;;;;;5113337;28;20458;-58
2021/01/07 04:06:09;;;;;;;16.50;10.13;;;4.10;1.00;;;;;;5107478;28;20753;-57
2021/01/07 04:08:36;;;;;;;13.10;8.73;;;4.10;1.00;;;;;;5108358;28;20591;-58
2021/01/07 04:11:02;;;;;;;13.10;8.73;;;4.00;1.00;;;;;;5107925;27;20454;-57
2021/01/07 04:13:28;;;;;;;11.13;7.87;;;4.10;1.00;;;;;;5108645;28;20539;-57
2021/01/07 04:15:54;;;;;;;14.90;9.90;;;4.20;1.00;;;;;;5113563;28;20496;-57
2021/01/07 04:18:20;;;;;;;15.07;9.13;;;4.00;1.00;;;;;;5111730;27;20442;-58
2021/01/07 04:20:46;;;;;;;13.43;8.53;;;4.00;1.00;;;;;;5117298;27;20289;-57
2021/01/07 04:23:11;;;;;;;14.50;8.77;;;4.00;1.00;;;;;;5133628;27;20195;-57
2021/01/07 04:25:37;;;;;;;12.73;8.67;;;3.90;1.00;;;;;;5116866;27;20628;-58
2021/01/07 04:28:03;;;;;;;13.93;9.27;;;4.10;1.00;;;;;;5117310;27;20215;-57
2021/01/07 04:30:28;;;;;;;13.73;9.20;;;4.10;1.00;;;;;;5112797;28;20298;-58
2021/01/07 04:32:54;;;;;;;12.50;8.87;;;4.10;1.00;;;;;;5112525;28;20202;-57
2021/01/07 04:35:20;;;;;;;14.70;9.70;;;4.00;1.00;;;;;;5111725;28;20187;-58
2021/01/07 04:37:45;;;;;;;15.93;9.17;;;4.00;1.00;;;;;;5117913;27;20174;-58
2021/01/07 04:40:11;;;;;;;15.90;9.83;;;4.00;1.00;;;;;;5112523;28;20222;-58
2021/01/07 04:42:37;;;;;;;15.00;9.33;;;3.80;1.00;;;;;;5111063;28;20192;-60
2021/01/07 04:45:04;;;;;;;12.23;9.27;;;3.90;1.00;;;;;;5110445;28;20434;-58
2021/01/07 04:47:30;;;;;;;13.00;8.93;;;3.70;1.00;;;;;;5106637;27;20708;-58
2021/01/07 04:49:56;;;;;;;16.37;9.60;;;3.90;1.00;;;;;;5112519;27;20440;-58
2021/01/07 04:52:22;;;;;;;15.17;10.13;;;3.90;1.00;;;;;;5125719;27;20435;-57
2021/01/07 04:54:51;;;;;;;17.67;9.53;;;3.90;1.00;;;;;;5116974;27;20435;-57
2021/01/07 04:57:17;;;;;;;14.57;9.73;;;4.00;1.00;;;;;;5107425;27;20269;-57
2021/01/07 04:59:42;;;;;;;15.03;9.23;;;4.00;1.00;;;;;;5106229;27;20576;-57
2021/01/07 05:02:08;;;;;;;13.13;8.90;;;4.10;1.00;;;;;;5108452;28;20626;-58
2021/01/07 05:04:52;;;;;;;15.83;9.97;;;4.00;1.00;;;;;;5113442;27;20226;-60
2021/01/07 05:07:19;;;;;;;14.97;9.97;;;4.10;1.00;;;;;;5132954;27;20515;-59
2021/01/07 05:09:46;;;;;;;14.67;9.87;;;4.20;1.00;;;;;;5132732;27;20437;-59
2021/01/07 05:12:13;;;;;;;14.87;10.07;;;4.30;1.00;;;;;;5119975;27;20445;-59
2021/01/07 05:14:45;;;;;;;14.83;8.43;;;4.30;1.00;;;;;;5111811;28;21204;-59
2021/01/07 05:17:14;;;;;;;15.53;9.87;;;4.20;1.00;;;;;;5111026;28;20448;-59
2021/01/07 05:19:40;;;;;;;13.87;9.10;;;4.00;1.00;;;;;;5107834;28;20460;-59
2021/01/07 05:22:06;;;;;;;14.40;10.03;;;4.00;1.00;;;;;;5108778;28;20441;-59
2021/01/07 05:24:32;;;;;;;13.50;8.73;;;4.10;1.00;;;;;;5108865;28;20473;-59
2021/01/07 05:27:05;;;;;;;13.30;8.73;;;4.10;1.00;;;;;;5120979;27;20206;-58
2021/01/07 05:29:31;;;;;;;13.77;8.77;;;4.10;1.00;;;;;;5126846;27;20514;-57
2021/01/07 05:31:57;;;;;;;15.50;9.80;;;4.10;1.00;;;;;;5113575;28;20469;-57
2021/01/07 05:34:22;;;;;;;13.57;9.20;;;4.20;1.00;;;;;;5112257;28;20464;-57
2021/01/07 05:36:48;;;;;;;12.10;8.33;;;;;;;;;;5113505;28;20177;-57
2021/01/07 05:39:14;;;;;;;13.63;9.20;;;4.20;1.00;;;;;;5112727;28;20273;-58
2021/01/07 05:41:40;;;;;;;11.40;7.90;;;4.20;1.00;;;;;;5113117;28;20425;-56
2021/01/07 05:44:08;;;;;;;12.37;8.00;;;4.20;1.00;;;;;;5113318;28;20180;-58
2021/01/07 05:46:35;;;;;;;11.57;6.93;;;4.10;1.00;;;;;;5112896;28;20972;-58
2021/01/07 05:49:00;;;;;;;13.33;8.00;;;4.10;1.00;;;;;;5113115;28;20435;-58
2021/01/07 05:51:29;;;;;;;12.83;8.33;;;3.90;1.00;;;;;;5114654;27;20970;-58
2021/01/07 05:53:56;;;;;;;10.10;7.20;;;4.00;1.00;;;;;;5131629;27;20421;-59
2021/01/07 05:56:22;;;;;;;11.80;7.47;;;3.80;1.00;;;;;;5122460;27;20837;-58
2021/01/07 05:58:50;;;;;;;18.13;9.00;;;3.70;1.00;;;;;;5133466;27;20518;-59
2021/01/07 06:01:17;;;;;;;12.47;8.30;;;3.70;1.00;;;;;;5133145;27;20457;-58
2021/01/07 06:03:55;;;;;;;13.60;8.10;;;3.80;1.00;;;;;;5114184;28;20425;-58
2021/01/07 06:06:24;;;;;;;20.90;8.80;;;4.00;1.00;;;;;;5116095;27;20448;-58
2021/01/07 06:08:52;;;;;;;15.50;8.97;;;4.00;1.00;;;;;;5111811;27;20490;-58
2021/01/07 06:11:19;;;;;;;12.73;7.27;;;4.00;1.00;;;;;;5111306;28;20444;-58
2021/01/07 06:13:47;;;;;;;11.23;7.50;;;4.00;1.00;;;;;;5123833;27;20791;-58
2021/01/07 06:16:15;;;;;;;11.80;7.83;;;4.00;1.00;;;;;;5116276;27;20943;-59
2021/01/07 06:18:41;;;;;;;11.23;7.23;;;3.90;1.00;;;;;;5125185;27;20835;-59
2021/01/07 06:21:08;;;;;;;14.23;9.77;;;3.80;1.00;;;;;;5112161;28;20965;-58
2021/01/07 06:23:40;;;;;;;11.67;7.77;;;3.90;1.00;;;;;;5111305;28;20430;-58
2021/01/07 06:26:24;;;;;;;12.20;8.23;;;4.00;1.00;;;;;;5112741;28;20506;-58
2021/01/07 06:28:58;;;;;;;11.43;8.10;;;4.00;1.00;;;;;;5111057;28;20439;-58
2021/01/07 06:31:35;;;;;;;11.57;7.20;;;4.00;1.00;;;;;;5112499;28;20471;-58
2021/01/07 06:34:00;;;;;;;11.47;8.23;;;4.00;1.00;;;;;;5112447;28;20437;-58
2021/01/07 06:36:56;;;;;;;13.40;7.97;;;4.10;1.00;;;;;;5124437;28;20701;-58
2021/01/07 06:39:22;;;;;;;14.30;8.50;;;4.10;1.00;;;;;;5101122;28;20677;-58
2021/01/07 06:41:56;;;;;;;13.70;8.37;;;4.10;1.00;;;;;;5118879;28;20787;-58
2021/01/07 06:44:23;;;;;;;14.73;8.93;;;4.00;1.00;;;;;;5118127;28;20792;-57
2021/01/07 06:46:49;;;;;;;12.03;8.10;;;4.00;1.00;;;;;;5128161;27;20931;-59
2021/01/07 06:49:26;;;;;;;14.63;8.83;;;4.00;1.00;;;;;;5131104;27;20423;-58
2021/01/07 06:51:52;;;;;;;16.03;9.83;;;3.90;1.00;;;;;;5112431;28;20435;-59
2021/01/07 06:54:18;;;;;;;12.53;8.87;;;4.00;1.00;;;;;;5112423;28;20464;-58
2021/01/07 06:56:44;;;;;;;11.40;8.27;;;5.30;1.00;;;;;;5112492;28;20442;-58
2021/01/07 06:59:13;;;;;;;16.10;9.57;;;4.00;1.00;;;;;;5120988;28;20522;-58
2021/01/07 07:01:50;;;;;;;13.83;8.60;;;4.20;1.00;;;;;;5125434;27;20510;-57
2021/01/07 07:04:30;;;;;;;12.13;8.60;;;4.20;1.00;;;;;;5116794;27;20427;-58
2021/01/07 07:07:42;;;;;;;15.03;9.07;;;4.20;1.00;;;;;;5136478;27;20445;-58
2021/01/07 07:10:17;;;;;;;14.60;8.93;;;4.10;1.00;;;;;;5131018;27;20879;-58
2021/01/07 07:12:46;;;;;;;15.83;9.50;;;3.90;1.00;;;;;;5129999;27;20837;-58
2021/01/07 07:15:12;;;;;;;14.00;9.50;;;4.00;1.00;;;;;;5122673;27;20436;-59
2021/01/07 07:17:39;;;;;;;16.00;10.03;;;4.10;1.00;;;;;;5121445;27;20430;-58
2021/01/07 07:20:09;;;;;;;14.60;9.93;;;4.20;1.00;;;;;;5125530;27;20548;-58
2021/01/07 07:22:41;;;;;;;16.87;10.30;;;4.20;1.00;;;;;;5122871;27;20444;-60
2021/01/07 07:25:08;;;;;;;14.83;9.60;;;4.20;1.00;;;;;;5112538;27;20442;-59
2021/01/07 07:27:50;;;;;;;16.80;10.40;;;4.20;1.00;;;;;;5113841;27;20434;-60
2021/01/07 07:30:30;;;;;;;15.40;10.53;;;4.20;1.00;;;;;;5130270;27;20476;-59
2021/01/07 07:32:57;;;;;;;13.30;9.00;;;4.30;1.00;;;;;;5123575;27;20445;-59
2021/01/07 07:35:28;;;;;;;15.37;9.27;;;4.30;1.00;;;;;;5113875;27;20532;-59
2021/01/07 07:37:54;;;;;;;14.40;9.33;;;4.10;1.00;;;;;;5122159;27;20490;-58
2021/01/07 07:40:32;;;;;;;13.37;9.47;;;4.00;1.00;;;;;;5135945;27;20473;-57
2021/01/07 07:42:59;;;;;;;14.90;10.40;;;4.00;1.00;;;;;;5121204;27;20434;-59
2021/01/07 07:45:30;;;;;;;14.87;9.93;;;4.00;1.00;;;;;;5119582;27;20476;-59
2021/01/07 07:47:56;;;;;;;15.20;9.53;;;3.90;1.00;;;;;;5136057;27;20426;-58
2021/01/07 07:50:29;;;;;;;16.83;9.93;;;3.90;1.00;;;;;;5126860;27;20801;-58
2021/01/07 07:53:12;;;;;;;15.67;9.77;;;3.80;1.00;;;;;;5115488;28;20442;-59
2021/01/07 07:55:39;;;;;;;16.37;9.73;;;3.80;1.00;;;;;;5115502;28;20799;-58
2021/01/07 07:58:15;;;;;;;12.40;8.63;;;3.90;1.00;;;;;;5115496;28;20949;-58
2021/01/07 08:00:55;;;;;;;16.40;9.50;;;4.00;1.00;;;;;;5120143;27;20462;-58
2021/01/07 08:03:28;;;;;;;15.00;9.43;;;3.90;1.00;;;;;;5133235;27;20425;-58
2021/01/07 08:05:54;;;;;;;11.93;8.83;;;3.90;1.00;;;;;;5113851;28;20431;-58
2021/01/07 08:08:25;;;;;;;14.23;8.97;;;3.90;1.00;;;;;;5131364;27;20888;-59
2021/01/07 08:10:52;;;;;;;17.90;10.03;;;3.90;1.00;;;;;;5135366;27;20829;-58
2021/01/07 08:13:23;;;;;;;12.83;8.27;;;4.10;1.00;;;;;;5115200;27;20487;-59
2021/01/07 08:15:50;;;;;;;13.93;8.40;;;3.90;1.00;;;;;;5123221;27;20433;-58
2021/01/07 08:18:27;;;;;;;13.70;8.70;;;3.90;1.00;;;;;;5131058;27;20507;-59
2021/01/07 08:20:55;;;;;;;13.03;9.27;;;3.80;1.00;;;;;;5118324;27;20863;-58
2021/01/07 08:23:22;;;;;;;13.23;8.20;;;3.90;1.00;;;;;;5125225;27;20492;-58
2021/01/07 08:25:50;;;;;;;12.93;8.70;;;4.00;1.00;;;;;;5135460;27;20422;-59
2021/01/07 08:28:38;;;;;;;13.60;7.97;;;4.00;1.00;;;;;;5122052;27;20838;-58
2021/01/07 08:31:10;;;;;;;16.07;10.03;;;4.00;1.00;;;;;;5114547;28;20457;-58
2021/01/07 08:33:36;;;;;;;12.63;8.50;;;4.10;1.00;;;;;;5114825;27;20463;-58
2021/01/07 08:36:03;;;;;;;14.97;8.80;;;4.00;1.00;;;;;;5116758;27;20469;-58
2021/01/07 08:38:30;;;;;;;13.10;7.70;;;3.90;1.00;;;;;;5125769;27;20434;-59
2021/01/07 08:41:13;;;;;;;15.97;8.73;;;3.90;1.00;;;;;;5114123;27;20993;-61
2021/01/07 08:43:39;;;;;;;11.40;9.20;;;4.00;1.00;;;;;;5113582;27;20450;-60
2021/01/07 08:46:24;;;;;;;10.07;7.73;;;4.00;1.00;;;;;;5123646;27;20431;-59
2021/01/07 08:49:10;;;;;;;12.17;8.00;;;3.80;1.00;;;;;;5125692;27;20436;-59
2021/01/07 08:51:44;;;;;;;13.07;8.57;;;3.80;1.00;;;;;;5120509;27;20489;-60
2021/01/07 08:54:15;;;;;;;12.10;8.37;;;3.90;1.00;;;;;;5121713;27;20933;-58
2021/01/07 08:56:45;;;;;;;9.67;7.13;;;4.00;1.00;;;;;;5131389;27;20452;-59
2021/01/07 08:59:23;;;;;;;11.67;8.30;;;4.10;1.00;;;;;;5118801;27;20728;-59
2021/01/07 09:01:51;;;;;;;14.50;8.70;;;4.10;1.00;;;;;;5112326;27;20450;-59
2021/01/07 09:04:30;;;;;;;10.50;7.77;;;4.00;1.00;;;;;;5112065;28;20493;-59
2021/01/07 09:07:03;;;;;;;11.80;8.50;;;3.90;1.00;;;;;;5112200;28;20443;-60
2021/01/07 09:09:51;;;;;;;9.87;7.63;;;4.00;1.00;;;;;;5111976;28;20429;-60
2021/01/07 09:12:23;;;;;;;10.67;8.40;;;4.00;1.00;;;;;;5112022;28;20929;-59
2021/01/07 09:15:05;;;;;;;10.70;7.57;;;3.90;1.00;;;;;;5111992;28;20431;-61
2021/01/07 09:17:43;;;;;;;14.00;8.63;;;3.90;1.00;;;;;;5111788;28;20432;-59
2021/01/07 09:20:14;;;;;;;9.27;7.23;;;4.00;1.00;;;;;;5111312;28;20597;-60
2021/01/07 09:22:41;;;;;;;12.30;8.63;;;3.90;1.00;;;;;;5110185;28;20443;-59
2021/01/07 09:25:08;;;;;;;12.67;7.83;;;;;;;;;;5109883;28;20435;-60
2021/01/07 09:27:34;;;;;;;11.00;7.37;;;4.00;1.00;;;;;;5129268;27;20432;-61
2021/01/07 09:30:00;;;;;;;13.27;8.37;;;4.00;1.00;;;;;;5132387;27;20467;-60
2021/01/07 09:32:26;;;;;;;12.23;9.00;;;4.10;1.00;;;;;;5116327;27;20524;-59
2021/01/07 09:34:51;;;;;;;11.67;7.77;;;4.00;1.00;;;;;;5118606;27;20430;-60
2021/01/07 09:37:19;;;;;;;12.23;7.60;;;4.00;1.00;;;;;;5132126;27;20212;-59
2021/01/07 09:39:46;;;;;;;11.50;7.20;;;4.10;1.00;;;;;;5131927;27;20210;-59
2021/01/07 09:42:13;;;;;;;9.37;7.53;;;4.10;1.00;;;;;;5132132;27;20431;-59
2021/01/07 09:44:38;;;;;;;10.00;7.30;;;4.10;1.00;;;;;;5124803;27;20480;-59
2021/01/07 09:47:05;;;;;;;11.47;7.13;;;4.20;1.00;;;;;;5132284;27;20421;-58
2021/01/07 09:49:32;;;;;;;11.67;8.07;;;4.20;1.00;;;;;;5125742;27;20565;-61
2021/01/07 09:51:58;;;;;;;11.63;7.50;;;4.20;1.00;;;;;;5115030;27;20464;-59
2021/01/07 09:54:24;;;;;;;13.20;8.50;;;4.20;1.00;;;;;;5111349;28;20434;-59
2021/01/07 09:56:54;;;;;;;11.07;7.20;;;4.30;1.00;;;;;;5111230;28;20482;-59
2021/01/07 09:59:21;;;;;;;12.20;8.60;;;4.30;1.00;;;;;;5111329;28;20434;-59
2021/01/07 10:01:52;;;;;;;10.60;7.97;;;4.30;1.00;;;;;;5111121;28;20476;-59
2021/01/07 10:04:18;;;;;;;10.00;7.20;;;4.50;1.00;;;;;;5111411;28;20433;-60
2021/01/07 10:06:43;;;;;;;12.57;9.57;;;4.60;1.00;;;;;;5111266;28;20777;-60
2021/01/07 10:09:09;;;;;;;13.37;7.90;;;4.50;1.00;;;;;;5127723;27;20430;-59
2021/01/07 10:11:35;;;;;;;9.70;7.27;;;4.50;1.00;;;;;;5130224;27;20251;-59
2021/01/07 10:14:00;;;;;;;8.97;7.40;;;4.40;1.00;;;;;;5131448;27;20181;-59
2021/01/07 10:16:26;;;;;;;10.67;7.53;;;4.40;1.00;;;;;;5121656;27;20174;-59
2021/01/07 10:18:53;;;;;;;11.80;8.53;;;4.40;1.00;;;;;;5120068;27;20180;-60
2021/01/07 10:21:22;;;;;;;11.03;7.90;;;4.50;1.00;;;;;;5131407;27;20201;-60
2021/01/07 10:23:48;;;;;;;10.60;7.70;;;4.50;1.00;;;;;;5118042;27;20448;-59
2021/01/07 10:26:19;;;;;;;14.33;8.87;;;4.60;1.00;;;;;;5111053;28;20519;-60
2021/01/07 10:28:47;;;;;;;10.80;7.70;;;4.70;1.00;;;;;;5118645;28;20462;-59
2021/01/07 10:31:15;;;;;;;13.80;8.60;;;4.60;1.00;;;;;;5117705;27;20956;-60
2021/01/07 10:33:42;;;;;;;10.90;7.60;;;4.50;1.00;;;;;;5110992;28;21053;-60
2021/01/07 10:36:09;;;;;;;10.80;8.03;;;4.40;1.00;;;;;;5118401;27;20465;-60
2021/01/07 10:38:37;;;;;;;10.73;7.30;;;4.40;1.00;;;;;;5135693;27;20423;-60
2021/01/07 10:41:06;;;;;;;12.20;8.40;;;4.60;1.00;;;;;;5135274;27;20463;-60
2021/01/07 10:43:33;;;;;;;10.83;7.20;;;4.70;1.00;;;;;;5135718;27;20438;-59
2021/01/07 10:45:59;;;;;;;11.73;7.20;;;4.60;1.00;;;;;;5106753;28;20444;-59
2021/01/07 10:48:25;;;;;;;10.00;6.50;;;4.40;1.00;;;;;;5126702;27;20443;-60
2021/01/07 10:50:52;;;;;;;10.27;7.30;;;4.50;1.00;;;;;;5114947;27;20433;-59
2021/01/07 10:53:32;;;;;;;10.00;7.30;;;4.60;1.00;;;;;;5114520;28;20442;-61
2021/01/07 10:56:01;;;;;;;12.73;7.50;;;4.40;1.00;;;;;;5114873;28;20829;-60
2021/01/07 10:58:27;;;;;;;10.73;6.90;;;4.50;1.00;;;;;;5114935;28;20460;-59
2021/01/07 11:01:08;;;;;;;13.53;8.27;;;4.50;1.00;;;;;;5129421;27;20456;-60
2021/01/07 11:04:13;;;;;;;9.10;6.30;;;4.60;1.00;;;;;;5115852;27;20546;-60
2021/01/07 11:06:53;;;;;;;16.87;9.57;;;4.70;1.00;;;;;;5110907;28;20496;-61
2021/01/07 11:09:22;;;;;;;8.27;6.13;;;4.70;1.00;;;;;;5114889;28;20430;-60
2021/01/07 11:11:57;;;;;;;10.00;7.20;;;4.70;1.00;;;;;;5114588;28;20432;-58
2021/01/07 11:14:31;;;;;;;11.37;7.00;;;4.70;1.00;;;;;;5114397;28;20464;-60
2021/01/07 11:17:01;;;;;;;9.73;6.37;;;4.80;1.00;;;;;;5114540;28;20624;-60
2021/01/07 11:19:27;;;;;;;8.67;6.60;;;4.80;1.00;;;;;;5114426;28;20442;-61
2021/01/07 11:22:06;;;;;;;14.50;8.20;;;4.90;1.00;;;;;;5114519;28;20438;-60
2021/01/07 11:24:32;;;;;;;9.60;6.73;;;5.00;1.00;;;;;;5114439;28;20438;-59
2021/01/07 11:27:00;;;;;;;8.80;7.23;;;4.90;1.00;;;;;;5114315;28;20496;-60
2021/01/07 11:29:26;;;;;;;11.03;7.63;;;4.90;1.00;;;;;;5112721;28;20439;-60
2021/01/07 11:31:58;;;;;;;8.07;6.47;;;4.90;1.00;;;;;;5114419;27;20446;-59
2021/01/07 11:34:25;;;;;;;12.30;6.80;;;5.00;1.00;;;;;;5112712;28;20944;-59
2021/01/07 11:36:56;;;;;;;9.53;6.73;;;5.20;1.00;;;;;;5114082;28;21014;-59
2021/01/07 11:39:25;;;;;;;10.00;8.00;;;5.20;1.00;;;;;;5113714;28;20461;-59
2021/01/07 11:42:12;;;;;;;11.40;6.47;;;5.20;1.00;;;;;;5117997;27;20561;-60
2021/01/07 11:44:52;;;;;;;11.70;6.57;;;4.90;1.00;;;;;;5133303;27;20934;-61
2021/01/07 11:47:19;;;;;;;10.50;7.20;;;5.00;1.00;;;;;;5134061;27;20517;-59
2021/01/07 11:49:48;;;;;;;9.90;6.77;;;4.90;1.00;;;;;;5129820;27;20927;-59
2021/01/07 11:52:14;;;;;;;10.30;6.70;;;4.80;1.00;;;;;;5130484;27;20518;-59
2021/01/07 11:54:40;;;;;;;9.33;7.10;;;4.90;1.00;;;;;;5134084;27;20525;-61
2021/01/07 11:57:08;;;;;;;10.13;7.30;;;5.00;1.00;;;;;;5132851;27;20435;-60
2021/01/07 11:59:40;;;;;;;8.30;6.63;;;5.00;1.00;;;;;;5133878;27;20472;-61
2021/01/07 12:02:09;;;;;;;10.40;8.10;;;5.00;1.00;;;;;;5133822;27;20431;-61
2021/01/07 12:04:41;;;;;;;7.97;6.27;;;4.70;1.00;;;;;;5133984;27;20447;-61
2021/01/07 12:07:24;;;;;;;8.03;5.83;;;4.70;1.00;;;;;;5134224;27;20427;-60
2021/01/07 12:09:49;;;;;;;9.83;6.90;;;4.70;1.00;;;;;;5124770;27;20444;-61
2021/01/07 12:12:15;;;;;;;11.03;7.37;;;4.80;1.00;;;;;;5113425;28;20435;-60
2021/01/07 12:14:50;;;;;;;11.80;7.07;;;4.90;1.00;;;;;;5113120;28;20189;-61
2021/01/07 12:17:16;;;;;;;9.40;6.67;;;4.80;1.00;;;;;;5111867;28;20432;-60
2021/01/07 12:19:43;;;;;;;10.60;6.53;;;4.70;1.00;;;;;;5113313;28;20437;-61
2021/01/07 12:22:12;;;;;;;16.10;5.80;;;4.50;1.00;;;;;;5112871;27;20469;-61
2021/01/07 12:24:37;;;;;;;10.93;7.70;;;4.50;1.00;;;;;;5132878;27;20792;-62
2021/01/07 12:27:06;;;;;;;8.00;6.27;;;4.70;1.00;;;;;;5133567;27;20431;-61
2021/01/07 12:29:37;;;;;;;11.00;6.80;;;4.90;1.00;;;;;;5127464;27;20270;-60
2021/01/07 12:32:25;;;;;;;8.67;5.93;;;4.80;1.00;;;;;;5113176;28;20932;-61
2021/01/07 12:35:08;;;;;;;9.80;6.97;;;4.90;1.00;;;;;;5113018;28;20988;-60
2021/01/07 12:38:07;;;;;;;14.40;7.10;;;4.90;1.00;;;;;;5112735;28;20435;-59
2021/01/07 12:40:34;;;;;;;8.47;7.03;;;5.00;1.00;;;;;;5121326;27;21043;-60
2021/01/07 12:43:00;;;;;;;7.73;6.00;;;5.00;1.00;;;;;;5126898;27;20431;-61
2021/01/07 12:45:27;;;;;;;8.67;6.30;;;4.90;1.00;;;;;;5133386;27;20434;-61
2021/01/07 12:47:56;;;;;;;11.43;7.80;;;4.80;1.00;;;;;;5133315;27;20178;-60
2021/01/07 12:50:23;;;;;;;7.90;6.20;;;4.80;1.00;;;;;;5129631;27;20434;-61
2021/01/07 12:52:49;;;;;;;8.70;6.30;;;4.90;1.00;;;;;;5112252;28;21036;-60
2021/01/07 12:55:15;;;;;;;7.50;5.77;;;4.80;1.00;;;;;;5128071;27;20445;-61
2021/01/07 12:57:58;;;;;;;8.33;6.23;;;5.00;1.00;;;;;;5131715;27;20985;-60
2021/01/07 13:00:26;;;;;;;8.20;6.20;;;5.00;1.00;;;;;;5131891;27;20458;-61
2021/01/07 13:03:03;;;;;;;11.17;6.73;;;5.10;1.00;;;;;;5115808;27;20523;-60
2021/01/07 13:05:36;;;;;;;7.93;6.13;;;5.20;1.00;;;;;;5133059;27;20420;-60
2021/01/07 13:08:02;;;;;;;8.50;5.90;;;5.10;1.00;;;;;;5128183;27;20446;-61